Time;durP1;ratioP1;P1;durP2;ratioP2;P2;SDS_P1;SDS_P2;PMS_P1;PMS_P2;Temp;Humidity;BMP_temperature;BMP_pressure;BME280_temperature;BME280_humidity;BME280_pressure;Samples;Min_cycle;Max_cycle;Signal;HPM_P1;HPM_P2
2022/12/29 00:02:04;;;;;;;4.43;2.50;;;;;;;9.87;100.00;100039.91;5087332;28;21166;-84
2022/12/29 00:04:29;;;;;;;2.47;2.05;;;;;;;9.94;100.00;100045.84;5080082;28;20032;-83
2022/12/29 00:06:55;;;;;;;3.45;2.10;;;;;;;9.92;100.00;100039.75;5113895;27;20070;-82
2022/12/29 00:09:20;;;;;;;2.85;2.28;;;;;;;9.94;100.00;100041.44;5118909;27;20039;-83
2022/12/29 00:11:46;;;;;;;4.15;1.73;;;;;;;9.99;100.00;100017.44;5125645;27;20043;-82
2022/12/29 00:16:56;;;;;;;2.35;1.77;;;;;;;9.96;100.00;100015.78;5117090;27;20461;-81
2022/12/29 00:36:15;;;;;;;2.30;0.80;;;;;;;9.75;100.00;100014.69;5112821;27;20106;-80
2022/12/29 00:44:14;;;;;;;2.30;1.10;;;;;;;9.45;100.00;99988.31;5109679;27;20058;-82
2022/12/29 00:46:42;;;;;;;3.55;1.23;;;;;;;9.42;100.00;99983.13;5085479;28;20439;-82
2022/12/29 00:51:56;;;;;;;1.42;1.00;;;;;;;9.26;100.00;99966.00;5129198;27;20038;-82
2022/12/29 00:54:22;;;;;;;1.20;1.00;;;;;;;9.25;100.00;99965.16;5115137;27;20134;-81
2022/12/29 00:56:53;;;;;;;3.45;1.00;;;;;;;9.27;100.00;99975.66;5129670;27;20041;-80
2022/12/29 00:59:19;;;;;;;3.50;1.98;;;;;;;9.19;100.00;99972.38;5102763;28;20035;-81
2022/12/29 01:01:46;;;;;;;1.40;1.10;;;;;;;9.16;100.00;99972.47;5119613;27;20321;-81
2022/12/29 01:04:12;;;;;;;3.47;1.60;;;;;;;9.14;100.00;99967.22;5119662;27;20102;-81
2022/12/29 01:06:39;;;;;;;2.50;1.63;;;;;;;9.17;100.00;99961.88;5095548;28;20074;-82
2022/12/29 01:11:51;;;;;;;3.15;1.58;;;;;;;9.13;100.00;99954.94;5091875;28;20479;-82
2022/12/29 01:14:18;;;;;;;3.25;1.75;;;;;;;9.22;100.00;99948.50;5099423;28;20024;-82
2022/12/29 01:16:44;;;;;;;2.08;1.60;;;;;;;9.15;100.00;99941.69;5073896;28;20131;-82
2022/12/29 01:19:10;;;;;;;2.72;2.03;;;;;;;9.13;100.00;99946.16;5099288;28;20028;-82
2022/12/29 01:21:36;;;;;;;3.08;1.90;;;;;;;9.22;100.00;99940.56;5095316;28;20031;-81
2022/12/29 01:24:01;;;;;;;5.22;2.00;;;;;;;9.26;100.00;99940.44;5080450;28;20047;-82
2022/12/29 01:26:27;;;;;;;3.53;1.77;;;;;;;9.30;100.00;99954.44;5111388;28;20391;-81
2022/12/29 01:28:52;;;;;;;2.03;1.80;;;;;;;9.38;100.00;99957.69;5097975;28;20078;-82
2022/12/29 01:31:18;;;;;;;3.42;2.10;;;;;;;9.46;100.00;99949.53;5093104;28;20433;-82
2022/12/29 01:33:44;;;;;;;2.28;1.85;;;;;;;9.41;100.00;99939.09;5093450;28;20437;-80
2022/12/29 01:36:13;;;;;;;3.03;1.70;;;;;;;9.39;100.00;99929.50;5094552;28;20063;-82
2022/12/29 01:38:40;;;;;;;3.75;1.38;;;;;;;9.49;100.00;99933.56;5090802;28;20540;-82
2022/12/29 01:41:07;;;;;;;3.80;1.80;;;;;;;9.56;100.00;99934.25;5100319;28;20028;-83
2022/12/29 01:43:39;;;;;;;2.90;1.63;;;;;;;9.70;100.00;99929.38;5081569;28;20059;-83
2022/12/29 01:46:28;;;;;;;2.38;1.30;;;;;;;9.75;100.00;99919.50;5111547;28;20414;-82
2022/12/29 01:49:12;;;;;;;1.30;1.20;;;;;;;9.65;100.00;99931.31;5060577;28;20135;-83
2022/12/29 01:51:59;;;;;;;4.07;1.40;;;;;;;9.72;100.00;99934.59;5077204;28;20031;-81
2022/12/29 01:54:28;;;;;;;1.90;0.95;;;;;;;9.72;100.00;99930.19;5094025;28;20109;-83
2022/12/29 01:56:59;;;;;;;3.78;1.40;;;;;;;9.77;100.00;99937.97;5090753;28;20039;-83
2022/12/29 01:59:29;;;;;;;2.33;1.13;;;;;;;9.90;100.00;99932.22;5090120;28;20035;-81
2022/12/29 02:01:55;;;;;;;2.90;0.80;;;;;;;9.93;100.00;99928.59;5094791;28;20020;-86
2022/12/29 02:04:24;;;;;;;3.60;1.35;;;;;;;9.93;100.00;99925.09;5082508;28;20495;-82
2022/12/29 02:06:55;;;;;;;3.22;1.27;;;;;;;9.82;100.00;99921.03;5114484;28;20306;-82
2022/12/29 02:09:22;;;;;;;;;;;;;;;10.02;100.00;99925.66;5121129;28;20023;-83
2022/12/29 02:11:49;;;;;;;4.22;1.40;;;;;;;9.92;100.00;99929.53;5113464;28;21797;-81
2022/12/29 02:14:17;;;;;;;2.08;0.95;;;;;;;9.95;100.00;99934.72;5094356;28;20081;-82
2022/12/29 02:17:03;;;;;;;2.20;1.23;;;;;;;10.12;100.00;99932.34;5125359;28;20562;-83
2022/12/29 02:19:57;;;;;;;4.45;1.27;;;;;;;10.04;100.00;99946.75;5112409;28;20036;-82
2022/12/29 02:22:57;;;;;;;3.83;1.30;;;;;;;10.08;100.00;99938.66;5127662;28;20028;-83
2022/12/29 02:25:47;;;;;;;2.45;1.10;;;;;;;10.06;100.00;99924.66;5124767;28;20027;-82
2022/12/29 02:28:31;;;;;;;1.50;1.10;;;;;;;10.12;100.00;99934.16;5108039;28;20027;-83
2022/12/29 02:31:24;;;;;;;3.90;1.30;;;;;;;10.15;100.00;99922.59;5108165;28;20035;-82
2022/12/29 02:34:02;;;;;;;4.10;1.50;;;;;;;10.13;99.43;99941.16;5120785;27;20416;-81
2022/12/29 02:36:45;;;;;;;3.92;1.17;;;;;;;10.20;99.61;99929.44;5110603;28;20027;-82
2022/12/29 02:39:28;;;;;;;4.63;1.25;;;;;;;10.12;99.20;99910.34;5109930;28;20027;-83
2022/12/29 02:42:22;;;;;;;6.38;1.20;;;;;;;10.15;99.21;99919.94;5119119;28;20118;-82
2022/12/29 02:45:02;;;;;;;3.72;1.08;;;;;;;10.13;99.63;99915.56;5099506;27;20039;-84
2022/12/29 02:47:38;;;;;;;3.90;1.20;;;;;;;10.16;98.87;99906.66;5112252;28;20023;-88
2022/12/29 02:50:13;;;;;;;3.65;1.20;;;;;;;10.16;98.03;99916.38;5122513;27;20095;-83
2022/12/29 02:52:46;;;;;;;4.47;1.40;;;;;;;10.21;98.50;99917.06;5134801;27;20084;-83
2022/12/29 02:55:12;;;;;;;8.95;1.60;;;;;;;10.12;98.52;99913.84;5134820;27;20023;-85
2022/12/29 02:57:38;;;;;;;4.00;1.20;;;;;;;10.19;98.86;99917.16;5080543;28;20028;-84
2022/12/29 03:00:09;;;;;;;4.35;1.17;;;;;;;10.13;99.54;99904.13;5113856;28;20035;-83
2022/12/29 03:03:01;;;;;;;3.97;1.35;;;;;;;10.09;99.74;99903.38;5117618;27;20058;-84
2022/12/29 03:05:26;;;;;;;3.00;1.10;;;;;;;10.05;100.00;99914.97;5114102;28;20039;-83
2022/12/29 03:08:19;;;;;;;3.80;1.08;;;;;;;10.06;100.00;99905.25;5108622;28;20463;-83
2022/12/29 03:10:50;;;;;;;4.43;1.00;;;;;;;10.05;100.00;99903.53;5085268;28;20081;-84
2022/12/29 03:16:22;;;;;;;4.35;0.82;;;;;;;10.03;100.00;99903.56;5130581;27;20065;-84
2022/12/29 03:18:58;;;;;;;5.97;1.30;;;;;;;10.03;100.00;99903.56;5117136;27;20476;-85
2022/12/29 03:24:32;;;;;;;3.03;1.10;;;;;;;10.01;99.80;99907.19;5131439;27;20391;-83
2022/12/29 03:27:03;;;;;;;2.83;1.13;;;;;;;9.88;100.00;99904.97;5114008;28;20443;-83
2022/12/29 03:29:53;;;;;;;2.45;1.25;;;;;;;9.91;100.00;99904.00;5083247;28;20039;-84
2022/12/29 03:32:21;;;;;;;2.33;1.27;;;;;;;9.91;100.00;99898.69;5115104;27;20031;-84
2022/12/29 03:34:49;;;;;;;1.90;1.00;;;;;;;9.89;100.00;99904.06;5114009;28;20084;-84
2022/12/29 03:37:21;;;;;;;6.85;1.17;;;;;;;9.93;99.36;99882.78;5108284;28;20038;-84
2022/12/29 03:39:46;;;;;;;3.53;1.10;;;;;;;9.96;98.99;99907.34;5093619;28;20036;-84
2022/12/29 03:42:20;;;;;;;3.20;1.10;;;;;;;9.92;99.33;99899.59;5072824;28;20036;-86
2022/12/29 03:44:47;;;;;;;4.72;1.20;;;;;;;9.90;99.63;99903.13;5105046;28;20028;-84
2022/12/29 03:47:15;;;;;;;4.25;1.42;;;;;;;9.89;99.80;99911.09;5089201;28;20036;-84
2022/12/29 03:49:42;;;;;;;4.28;1.02;;;;;;;9.78;99.78;99900.03;5099132;28;20036;-86
2022/12/29 03:52:07;;;;;;;3.55;1.00;;;;;;;9.86;99.71;99912.06;5087303;28;20031;-84
2022/12/29 03:54:39;;;;;;;3.33;1.13;;;;;;;9.76;99.90;99886.88;5076917;28;20108;-85
2022/12/29 03:57:05;;;;;;;3.78;1.20;;;;;;;9.74;100.00;99903.69;5085342;28;20044;-85
2022/12/29 03:59:48;;;;;;;2.65;0.88;;;;;;;9.81;99.53;99911.38;5087940;28;20023;-85
2022/12/29 04:02:14;;;;;;;4.10;1.30;;;;;;;9.71;100.00;99904.66;5076447;28;20040;-85
2022/12/29 04:04:40;;;;;;;3.83;1.08;;;;;;;9.80;100.00;99903.50;5076377;28;20482;-85
2022/12/29 04:07:06;;;;;;;4.10;1.15;;;;;;;9.62;100.00;99897.06;5059520;28;20063;-85
2022/12/29 04:09:32;;;;;;;3.40;1.35;;;;;;;9.66;100.00;99911.88;5107890;28;20043;-85
2022/12/29 04:11:58;;;;;;;4.13;1.20;;;;;;;9.65;100.00;99931.31;5077850;28;20399;-85
2022/12/29 04:14:24;;;;;;;3.85;1.13;;;;;;;9.61;100.00;99919.09;5076046;28;20118;-85
2022/12/29 04:16:51;;;;;;;5.10;1.80;;;;;;;9.61;100.00;99916.47;5060098;28;20035;-84
2022/12/29 04:19:16;;;;;;;6.18;1.60;;;;;;;9.61;100.00;99919.97;5073351;28;20032;-84
2022/12/29 04:21:42;;;;;;;4.55;1.33;;;;;;;9.61;100.00;99924.38;5079516;28;20093;-85
2022/12/29 04:24:08;;;;;;;4.47;1.25;;;;;;;9.62;100.00;99921.72;5096104;28;20027;-85
2022/12/29 04:26:39;;;;;;;3.13;1.07;;;;;;;9.62;100.00;99929.63;5053772;28;20089;-85
2022/12/29 04:29:27;;;;;;;5.63;1.40;;;;;;;9.58;100.00;99935.06;5104640;28;20115;-84
2022/12/29 04:32:11;;;;;;;5.82;1.30;;;;;;;9.48;100.00;99911.56;5078445;28;20495;-84
2022/12/29 04:34:43;;;;;;;3.40;0.85;;;;;;;9.48;100.00;99930.06;5097118;28;20035;-85
2022/12/29 04:37:08;;;;;;;4.55;0.85;;;;;;;9.51;99.74;99912.38;5078808;28;20517;-85
2022/12/29 04:39:34;;;;;;;4.10;1.02;;;;;;;9.40;100.00;99928.59;5079037;28;20124;-85
2022/12/29 04:41:59;;;;;;;4.75;1.48;;;;;;;9.37;100.00;99932.19;5078770;28;20034;-84
2022/12/29 04:44:25;;;;;;;2.60;1.00;;;;;;;9.43;99.78;99936.41;5078928;28;20055;-84
2022/12/29 04:47:16;;;;;;;7.72;1.70;;;;;;;9.36;99.19;99927.81;5099319;28;20032;-85
2022/12/29 04:49:53;;;;;;;8.77;1.58;;;;;;;9.36;98.57;99930.47;5081054;28;20495;-84
2022/12/29 04:52:33;;;;;;;5.75;1.35;;;;;;;9.35;97.85;99941.09;5083117;28;20044;-85
2022/12/29 04:54:59;;;;;;;3.47;1.10;;;;;;;9.41;98.10;99947.03;5090520;28;20097;-85
2022/12/29 04:57:25;;;;;;;5.82;1.45;;;;;;;9.21;97.53;99963.50;5071144;28;20034;-84
2022/12/29 04:59:54;;;;;;;2.33;1.05;;;;;;;9.30;96.88;99972.03;5076915;28;20506;-87
2022/12/29 05:02:21;;;;;;;6.75;1.88;;;;;;;9.24;95.90;99984.53;5053298;28;20036;-85
2022/12/29 05:04:49;;;;;;;3.45;1.20;;;;;;;9.17;96.44;99971.56;5061840;28;20043;-85
2022/12/29 05:07:15;;;;;;;6.38;1.50;;;;;;;9.19;95.65;99972.38;5098721;27;20477;-85
2022/12/29 05:09:43;;;;;;;5.50;1.15;;;;;;;9.13;96.22;99972.56;5112546;28;20032;-85
2022/12/29 05:12:09;;;;;;;8.27;1.63;;;;;;;9.13;95.96;99975.22;5098900;27;20122;-85
2022/12/29 05:14:40;;;;;;;5.88;1.40;;;;;;;9.09;96.16;99987.63;5106339;27;20035;-85
2022/12/29 05:17:06;;;;;;;7.50;1.80;;;;;;;9.02;96.17;100000.13;5108121;27;20371;-85
2022/12/29 05:19:32;;;;;;;7.35;1.65;;;;;;;8.99;95.75;99992.31;5097633;27;20091;-85
2022/12/29 05:21:58;;;;;;;6.03;1.33;;;;;;;9.02;95.92;100008.06;5095605;27;20031;-85
2022/12/29 05:24:24;;;;;;;6.40;1.63;;;;;;;8.98;96.12;100008.22;5097914;27;20039;-85
2022/12/29 05:26:51;;;;;;;14.57;2.17;;;;;;;9.02;95.01;99999.28;5097219;27;20031;-85
2022/12/29 05:29:31;;;;;;;6.43;1.38;;;;;;;8.95;94.94;99997.72;5086633;27;20118;-85
2022/12/29 05:31:57;;;;;;;5.78;1.23;;;;;;;8.97;94.23;100001.19;5090847;27;20048;-85
2022/12/29 05:34:23;;;;;;;11.85;1.92;;;;;;;9.05;93.54;100015.06;5103542;28;20043;-85
2022/12/29 05:36:48;;;;;;;7.63;1.80;;;;;;;8.99;93.50;100008.16;5094454;27;20046;-84
2022/12/29 05:39:14;;;;;;;10.68;1.90;;;;;;;8.94;93.40;100006.56;5074747;27;20027;-86
2022/12/29 05:41:42;;;;;;;7.30;2.05;;;;;;;9.06;92.68;100015.94;5115273;27;20031;-85
2022/12/29 05:44:17;;;;;;;5.78;1.75;;;;;;;9.11;92.68;100008.72;5128351;27;20050;-84
2022/12/29 05:47:05;;;;;;;6.18;1.85;;;;;;;9.03;92.67;100016.88;5125748;27;20376;-86
2022/12/29 05:50:00;;;;;;;6.07;1.30;;;;;;;9.09;92.16;100018.47;5112389;27;20043;-85
2022/12/29 05:52:52;;;;;;;7.53;1.42;;;;;;;9.10;91.56;100028.13;5090830;27;20487;-85
2022/12/29 05:55:18;;;;;;;7.75;2.10;;;;;;;9.21;91.20;100040.09;5112041;28;20077;-84
2022/12/29 05:57:46;;;;;;;4.95;1.60;;;;;;;9.10;91.71;100020.19;5113196;28;20413;-85
2022/12/29 06:00:14;;;;;;;7.57;1.45;;;;;;;9.22;90.51;100018.09;5098650;28;20440;-85
2022/12/29 06:03:00;;;;;;;9.52;1.98;;;;;;;9.19;90.74;100020.78;5126615;28;20039;-85
2022/12/29 06:05:26;;;;;;;7.75;1.75;;;;;;;9.22;90.38;100040.97;5131898;28;20030;-84
2022/12/29 06:07:52;;;;;;;6.75;1.38;;;;;;;9.25;90.77;100039.13;5110670;28;20135;-85
2022/12/29 06:10:17;;;;;;;5.60;1.48;;;;;;;9.27;88.81;100031.13;5092380;28;20088;-84
2022/12/29 06:13:01;;;;;;;3.67;1.17;;;;;;;9.28;87.67;100034.66;5092046;28;20097;-84
2022/12/29 06:15:26;;;;;;;6.32;1.48;;;;;;;9.28;88.85;100024.09;5060331;28;20509;-86
2022/12/29 06:17:53;;;;;;;6.13;1.52;;;;;;;9.29;87.86;100021.38;5075158;28;20027;-86
2022/12/29 06:20:18;;;;;;;7.32;1.70;;;;;;;9.36;86.68;100035.28;5080743;28;20486;-84
2022/12/29 06:22:45;;;;;;;7.53;1.73;;;;;;;9.48;85.89;100013.78;5079669;28;20088;-85
2022/12/29 06:25:12;;;;;;;8.15;1.88;;;;;;;9.31;87.26;100022.22;5082002;28;20054;-85
2022/12/29 06:27:39;;;;;;;6.93;1.88;;;;;;;9.24;87.23;100020.66;5081513;28;20105;-84
2022/12/29 06:30:05;;;;;;;8.35;1.85;;;;;;;9.21;87.97;100033.97;5096348;28;20044;-85
2022/12/29 06:32:31;;;;;;;5.35;1.08;;;;;;;9.10;87.37;100012.25;5114307;28;20024;-85
2022/12/29 06:35:03;;;;;;;7.45;1.50;;;;;;;9.23;87.97;100021.59;5083015;28;20493;-86
2022/12/29 06:37:29;;;;;;;6.93;1.48;;;;;;;9.34;86.38;100022.09;5079819;28;20119;-84
2022/12/29 06:39:56;;;;;;;6.00;1.52;;;;;;;9.26;85.84;100011.78;5129581;27;20047;-84
2022/12/29 06:42:28;;;;;;;7.05;2.13;;;;;;;9.30;86.30;100023.13;5111749;28;20020;-85
2022/12/29 06:45:24;;;;;;;4.95;1.40;;;;;;;9.25;86.51;100025.03;5088918;28;20104;-84
2022/12/29 06:47:50;;;;;;;7.88;1.70;;;;;;;9.22;86.71;100012.78;5096594;28;20491;-84
2022/12/29 06:50:15;;;;;;;6.57;1.60;;;;;;;9.34;86.56;100019.47;5093141;28;20040;-85
2022/12/29 06:52:41;;;;;;;7.32;1.55;;;;;;;9.28;86.94;100030.22;5061572;28;20114;-85
2022/12/29 06:55:07;;;;;;;6.20;1.70;;;;;;;9.25;87.78;100028.56;5097853;28;20038;-85
2022/12/29 06:57:32;;;;;;;7.00;1.80;;;;;;;9.21;87.10;100020.75;5090700;28;20484;-84
2022/12/29 06:59:58;;;;;;;6.47;1.23;;;;;;;9.26;87.67;100014.41;5092645;28;20031;-84
2022/12/29 07:02:25;;;;;;;6.05;1.50;;;;;;;9.30;86.99;100020.50;5080575;28;20028;-87
2022/12/29 07:04:52;;;;;;;9.77;2.40;;;;;;;9.36;85.41;100017.66;5079616;28;20032;-88
2022/12/29 07:07:18;;;;;;;10.55;1.63;;;;;;;9.36;86.31;100035.28;5097646;28;20092;-87
2022/12/29 07:09:45;;;;;;;5.53;1.63;;;;;;;9.51;85.43;100015.47;5113389;28;20039;-88
2022/12/29 07:12:10;;;;;;;5.47;1.70;;;;;;;9.39;86.08;100030.75;5110215;28;20092;-87
2022/12/29 07:14:36;;;;;;;8.55;1.88;;;;;;;9.39;85.79;100046.63;5096680;28;20039;-87
2022/12/29 07:17:05;;;;;;;11.57;1.98;;;;;;;9.43;86.46;100044.78;5078162;28;20036;-87
2022/12/29 07:19:33;;;;;;;;;;;;;;;9.64;83.39;100061.75;5098829;28;20032;-90
2022/12/29 07:21:59;;;;;;;6.63;1.45;;;;;;;9.51;84.15;100058.59;5096760;28;19915;-88
2022/12/29 07:24:25;;;;;;;6.07;1.50;;;;;;;9.44;84.80;100046.47;5107586;28;20114;-87
2022/12/29 07:26:51;;;;;;;10.93;2.28;;;;;;;9.47;83.42;100054.34;5080350;28;20023;-87
2022/12/29 07:29:17;;;;;;;10.40;2.10;;;;;;;9.68;82.20;100063.38;5097181;28;20118;-88
2022/12/29 07:31:43;;;;;;;8.98;1.95;;;;;;;9.48;82.84;100067.50;5093743;28;20123;-87
2022/12/29 07:34:09;;;;;;;9.68;2.17;;;;;;;9.51;82.85;100077.09;5095494;28;20055;-87
2022/12/29 07:36:34;;;;;;;11.57;2.33;;;;;;;9.53;81.53;100080.56;5097119;28;20440;-87
2022/12/29 07:39:00;;;;;;;10.77;2.53;;;;;;;9.37;82.91;100077.53;5096619;28;20028;-88
2022/12/29 07:41:26;;;;;;;7.93;2.20;;;;;;;9.43;82.18;100079.13;5077577;28;20511;-88
2022/12/29 07:43:51;;;;;;;9.52;1.85;;;;;;;9.28;82.25;100079.56;5113073;28;20035;-88
2022/12/29 07:46:38;;;;;;;13.07;2.22;;;;;;;9.27;82.04;100070.75;5111171;28;20368;-88
2022/12/29 07:49:03;;;;;;;11.50;2.35;;;;;;;9.29;81.51;100083.94;5093473;28;20043;-87
2022/12/29 07:51:29;;;;;;;9.77;2.55;;;;;;;9.26;80.92;100077.81;5096742;28;20035;-88
2022/12/29 07:53:54;;;;;;;12.77;2.03;;;;;;;9.28;81.91;100100.72;5079690;28;20036;-88
2022/12/29 07:56:20;;;;;;;9.40;1.95;;;;;;;9.33;81.47;100082.94;5110898;28;20064;-87
2022/12/29 07:58:45;;;;;;;8.45;2.13;;;;;;;9.40;81.12;100085.38;5079862;28;20034;-87
2022/12/29 08:01:11;;;;;;;15.60;3.15;;;;;;;9.22;81.84;100075.31;5077622;28;20040;-87
2022/12/29 08:03:36;;;;;;;15.32;2.08;;;;;;;9.22;82.08;100083.22;5062395;28;20114;-87
2022/12/29 08:06:02;;;;;;;7.82;2.33;;;;;;;9.25;82.19;100089.31;5115679;27;20031;-87
2022/12/29 08:08:28;;;;;;;11.68;2.97;;;;;;;9.25;82.60;100102.53;5101318;27;20035;-88
2022/12/29 08:10:54;;;;;;;12.50;2.05;;;;;;;9.26;82.84;100101.59;5123475;27;20439;-88
2022/12/29 08:13:22;;;;;;;13.55;2.05;;;;;;;9.33;83.05;100109.38;5114243;27;20031;-89
2022/12/29 08:15:47;;;;;;;12.80;2.35;;;;;;;9.30;82.86;100104.16;5117411;27;20478;-88
2022/12/29 08:18:13;;;;;;;9.77;2.25;;;;;;;9.17;84.41;100108.91;5120191;27;20026;-88
2022/12/29 08:20:38;;;;;;;8.95;2.33;;;;;;;9.16;83.62;100107.19;5110210;27;20034;-87
2022/12/29 08:23:04;;;;;;;8.23;2.22;;;;;;;9.19;83.71;100105.31;5091993;27;20033;-87
2022/12/29 08:25:29;;;;;;;12.05;2.40;;;;;;;9.15;83.50;100111.63;5120108;27;20073;-88
2022/12/29 08:27:55;;;;;;;7.45;1.95;;;;;;;9.14;84.21;100101.09;5102774;27;20050;-88
2022/12/29 08:30:20;;;;;;;10.95;2.63;;;;;;;9.13;83.62;100105.50;5115877;27;20409;-88
2022/12/29 08:32:46;;;;;;;8.82;2.25;;;;;;;9.13;83.88;100100.22;5117873;27;20121;-88
2022/12/29 08:35:12;;;;;;;12.85;2.15;;;;;;;9.17;83.33;100115.09;5109133;27;20042;-88
2022/12/29 08:37:38;;;;;;;11.60;2.40;;;;;;;9.20;82.46;100106.22;5111234;27;20031;-88
2022/12/29 08:40:04;;;;;;;9.60;2.20;;;;;;;9.29;81.92;100099.78;5099905;27;20039;-87
2022/12/29 08:42:30;;;;;;;12.98;2.67;;;;;;;9.35;80.71;100097.00;5101472;27;20030;-88
2022/12/29 08:44:59;;;;;;;6.63;2.17;;;;;;;9.32;80.09;100090.00;5110082;27;20764;-88
2022/12/29 08:47:26;;;;;;;17.33;2.72;;;;;;;9.44;79.35;100100.19;5116272;27;20019;-88
2022/12/29 08:49:51;;;;;;;10.15;1.95;;;;;;;9.47;79.58;100116.00;5110400;27;20058;-88
2022/12/29 08:52:17;;;;;;;13.40;2.72;;;;;;;9.51;78.65;100095.63;5112389;27;20069;-88
2022/12/29 08:54:43;;;;;;;11.10;2.38;;;;;;;9.56;78.17;100098.13;5119906;27;20034;-88
2022/12/29 08:57:08;;;;;;;11.35;2.33;;;;;;;9.56;78.69;100100.75;5119824;27;20027;-87
2022/12/29 08:59:40;;;;;;;8.32;2.33;;;;;;;9.55;78.59;100107.84;5117613;27;20174;-87
2022/12/29 09:02:05;;;;;;;11.70;2.55;;;;;;;9.48;79.16;100101.00;5133290;27;20050;-87
2022/12/29 09:04:31;;;;;;;15.65;2.75;;;;;;;9.66;77.69;100107.50;5116805;27;20503;-88
2022/12/29 09:06:57;;;;;;;7.97;2.50;;;;;;;9.68;78.60;100114.47;5098056;27;20399;-88
2022/12/29 09:09:22;;;;;;;12.52;2.58;;;;;;;9.65;78.07;100109.28;5124344;27;20042;-87
2022/12/29 09:11:48;;;;;;;7.07;1.63;;;;;;;9.64;78.27;100125.19;5114364;27;20046;-87
2022/12/29 09:14:14;;;;;;;8.45;2.55;;;;;;;9.81;77.73;100125.56;5117546;27;20031;-88
2022/12/29 09:19:24;;;;;;;9.88;2.30;;;;;;;9.64;78.66;100134.00;5124760;27;20130;-87
2022/12/29 09:21:49;;;;;;;14.88;2.45;;;;;;;9.63;79.21;100128.75;5104811;27;20122;-88
2022/12/29 09:24:15;;;;;;;6.53;1.92;;;;;;;9.66;79.79;100134.81;5112080;27;20023;-88
2022/12/29 09:26:40;;;;;;;9.45;2.08;;;;;;;9.91;78.32;100147.28;5105071;27;20045;-87
2022/12/29 09:29:06;;;;;;;10.30;2.25;;;;;;;9.67;80.68;100125.13;5098721;27;20039;-88
2022/12/29 09:31:31;;;;;;;9.00;1.88;;;;;;;9.75;81.18;100144.25;5114114;27;20462;-88
2022/12/29 09:33:57;;;;;;;8.57;1.95;;;;;;;9.59;82.56;100151.75;5098795;27;21210;-88
2022/12/29 09:36:22;;;;;;;6.00;1.88;;;;;;;9.53;83.44;100137.88;5103903;27;20088;-87
2022/12/29 09:38:48;;;;;;;11.15;2.22;;;;;;;9.48;83.67;100141.50;5117268;27;20038;-87
2022/12/29 09:41:27;;;;;;;10.15;2.55;;;;;;;9.47;84.08;100144.19;5083952;27;20022;-87
2022/12/29 09:44:08;;;;;;;5.30;1.67;;;;;;;9.43;84.46;100177.75;5122611;27;20033;-88
2022/12/29 09:46:39;;;;;;;17.67;2.70;;;;;;;9.33;86.38;100172.78;5116398;27;20038;-87
2022/12/29 09:49:10;;;;;;;9.73;3.20;;;;;;;9.36;86.42;100172.69;5132235;27;20037;-87
2022/12/29 09:51:39;;;;;;;6.05;2.03;;;;;;;9.41;86.39;100184.00;5116389;27;20564;-87
2022/12/29 09:54:43;;;;;;;8.38;1.90;;;;;;;9.22;88.42;100189.81;5136872;27;20019;-87
2022/12/29 09:57:18;;;;;;;9.38;2.75;;;;;;;9.31;87.71;100195.72;5120401;28;20100;-86
2022/12/29 09:59:46;;;;;;;7.63;1.98;;;;;;;9.16;89.20;100189.09;5133000;27;20549;-87
2022/12/29 10:02:26;;;;;;;9.43;2.20;;;;;;;8.98;91.22;100208.94;5111034;27;20056;-87
2022/12/29 10:04:52;;;;;;;14.00;2.30;;;;;;;8.86;92.23;100207.44;5118352;27;20130;-89
2022/12/29 10:07:42;;;;;;;14.15;2.10;;;;;;;8.78;93.92;100233.19;5111258;27;20090;-87
2022/12/29 10:10:27;;;;;;;12.95;2.50;;;;;;;8.76;94.39;100238.50;5132714;27;20027;-89
2022/12/29 10:12:52;;;;;;;9.15;2.63;;;;;;;8.90;93.24;100219.69;5130624;27;20042;-89
2022/12/29 10:15:33;;;;;;;7.57;2.00;;;;;;;8.70;95.00;100240.41;5125681;28;20019;-87
2022/12/29 10:18:27;;;;;;;10.13;2.80;;;;;;;8.66;95.99;100241.41;5128495;27;20031;-87
2022/12/29 10:21:00;;;;;;;10.30;1.88;;;;;;;8.58;96.81;100254.75;5129304;28;20038;-87
2022/12/29 10:23:51;;;;;;;10.73;2.20;;;;;;;8.74;95.90;100253.50;5114404;28;20039;-88
2022/12/29 10:26:22;;;;;;;13.02;3.13;;;;;;;8.52;97.80;100252.25;5126427;27;20046;-88
2022/12/29 10:28:57;;;;;;;9.57;1.95;;;;;;;8.47;99.14;100264.69;5152821;27;20042;-88
2022/12/29 10:31:32;;;;;;;15.40;2.20;;;;;;;8.46;99.77;100277.03;5143419;27;20393;-87
2022/12/29 10:34:00;;;;;;;13.95;2.50;;;;;;;8.39;99.71;100241.09;5106494;27;20076;-89
2022/12/29 10:36:43;;;;;;;12.65;2.40;;;;;;;8.41;99.37;100270.97;5120028;28;20033;-87
2022/12/29 10:39:23;;;;;;;12.10;2.50;;;;;;;8.25;100.00;100264.25;5149195;27;20031;-87
2022/12/29 10:41:52;;;;;;;8.98;2.22;;;;;;;8.32;100.00;100277.28;5139418;27;20087;-91
2022/12/29 10:44:20;;;;;;;12.35;2.92;;;;;;;8.35;100.00;100298.31;5137532;27;20483;-87
2022/12/29 10:46:57;;;;;;;9.85;2.55;;;;;;;8.41;100.00;100292.09;5116179;28;20099;-90
2022/12/29 10:49:26;;;;;;;11.18;2.25;;;;;;;8.29;100.00;100292.31;5133955;27;20042;-87
2022/12/29 10:51:55;;;;;;;17.95;2.78;;;;;;;8.29;100.00;100294.97;5146599;27;20031;-88
2022/12/29 10:54:21;;;;;;;15.40;2.75;;;;;;;8.31;100.00;100304.56;5135608;27;20077;-88
2022/12/29 10:56:51;;;;;;;10.63;2.92;;;;;;;8.33;100.00;100307.16;5146761;27;20074;-87
2022/12/29 10:59:30;;;;;;;13.15;2.53;;;;;;;8.43;100.00;100306.09;5147152;27;20503;-88
2022/12/29 11:02:04;;;;;;;10.73;2.70;;;;;;;8.35;100.00;100305.38;5111328;27;20030;-89
2022/12/29 11:04:47;;;;;;;12.82;2.60;;;;;;;8.32;100.00;100305.44;5130469;27;20029;-88
2022/12/29 11:07:16;;;;;;;10.32;2.53;;;;;;;8.39;100.00;100312.31;5119355;27;20119;-88
2022/12/29 11:09:43;;;;;;;11.60;2.70;;;;;;;8.40;99.74;100317.59;5132879;27;20394;-88
2022/12/29 11:12:19;;;;;;;11.75;2.63;;;;;;;8.36;100.00;100310.63;5131009;27;20030;-89
2022/12/29 11:14:44;;;;;;;10.82;2.38;;;;;;;8.54;99.22;100337.56;5127881;27;20055;-88
2022/12/29 11:17:16;;;;;;;13.07;2.83;;;;;;;8.57;98.82;100332.19;5118154;27;20070;-88
2022/12/29 11:19:42;;;;;;;17.90;2.78;;;;;;;8.56;98.36;100317.28;5114845;27;20035;-88
2022/12/29 11:22:28;;;;;;;11.07;2.53;;;;;;;8.72;98.23;100345.06;5146772;27;20331;-89
2022/12/29 11:24:54;;;;;;;25.52;4.07;;;;;;;8.63;98.39;100341.75;5120295;27;20484;-87
2022/12/29 11:27:23;;;;;;;18.55;3.75;;;;;;;8.65;98.07;100334.66;5108809;27;20197;-88
2022/12/29 11:29:50;;;;;;;16.10;3.50;;;;;;;8.64;98.36;100333.81;5118504;27;20019;-88
2022/12/29 11:32:22;;;;;;;12.77;3.13;;;;;;;8.61;98.24;100333.88;5119330;27;20624;-87
2022/12/29 11:34:47;;;;;;;;;;;;;;;8.66;97.89;100344.34;5120048;27;20042;-87
2022/12/29 11:37:19;;;;;;;14.95;2.55;;;;;;;8.61;97.79;100368.19;5120532;27;19915;-88
2022/12/29 11:40:03;;;;;;;11.45;2.78;;;;;;;8.63;97.60;100349.66;5134529;27;20110;-88
2022/12/29 11:42:38;;;;;;;12.90;2.72;;;;;;;8.75;96.95;100344.13;5128343;27;20412;-88
2022/12/29 11:45:19;;;;;;;11.38;2.40;;;;;;;8.76;97.90;100359.94;5139361;27;20035;-87
2022/12/29 11:47:49;;;;;;;14.70;3.08;;;;;;;8.80;96.35;100352.78;5133651;27;20045;-87
2022/12/29 11:50:24;;;;;;;15.75;3.25;;;;;;;8.80;95.39;100366.00;5123036;27;20026;-91
2022/12/29 11:53:02;;;;;;;8.88;2.45;;;;;;;8.84;96.06;100362.41;5144523;27;20130;-87
2022/12/29 11:55:29;;;;;;;11.27;2.58;;;;;;;8.83;95.74;100365.97;5127323;27;20169;-87
2022/12/29 11:57:57;;;;;;;12.27;2.42;;;;;;;8.85;95.88;100376.47;5122684;27;20042;-87
2022/12/29 12:00:26;;;;;;;17.33;3.60;;;;;;;8.85;95.38;100377.31;5122460;27;20080;-87
2022/12/29 12:03:02;;;;;;;13.10;3.38;;;;;;;8.90;95.62;100374.59;5123193;27;20102;-88
2022/12/29 12:05:36;;;;;;;15.75;2.70;;;;;;;9.02;94.57;100376.94;5119410;27;20481;-89
2022/12/29 12:08:09;;;;;;;13.50;3.35;;;;;;;8.98;95.13;100380.59;5129792;27;20496;-88
2022/12/29 12:10:44;;;;;;;16.85;3.40;;;;;;;9.03;94.49;100391.91;5131936;27;20390;-87
2022/12/29 12:13:22;;;;;;;14.68;2.35;;;;;;;9.06;94.37;100383.06;5105052;27;20027;-88
2022/12/29 12:16:16;;;;;;;9.85;2.80;;;;;;;9.17;93.58;100389.81;5126370;27;20161;-88
2022/12/29 12:18:49;;;;;;;17.73;3.15;;;;;;;9.21;92.10;100382.69;5102653;27;20074;-87
2022/12/29 12:21:41;;;;;;;16.10;3.13;;;;;;;9.17;92.70;100371.34;5108711;27;20113;-87
2022/12/29 12:24:32;;;;;;;11.35;3.25;;;;;;;9.12;91.92;100377.59;5119313;27;20038;-87
2022/12/29 12:27:07;;;;;;;;;;;;;;;9.06;92.07;100378.63;5117293;27;20038;-88
2022/12/29 12:29:45;;;;;;;16.15;3.05;;;;;;;9.04;93.50;100383.06;5123654;27;19963;-88